createdAt,value
2023-05-18T00:00:01.601Z,97.65
2023-05-18T00:01:01.565Z,98.07
2023-05-18T00:02:01.576Z,98.38
2023-05-18T00:03:01.633Z,98.48
2023-05-18T00:04:01.588Z,98.58
2023-05-18T00:05:01.483Z,98.69
2023-05-18T00:06:01.514Z,98.69
2023-05-18T00:07:01.462Z,98.58
2023-05-18T00:08:01.496Z,98.73
2023-05-18T00:09:01.498Z,98.83
2023-05-18T00:10:01.670Z,98.73
2023-05-18T00:11:01.395Z,98.73
2023-05-18T00:12:01.438Z,98.63
2023-05-18T00:13:01.424Z,98.52
2023-05-18T00:14:01.387Z,98.21
2023-05-18T00:15:01.494Z,97.85
2023-05-18T00:16:02.357Z,97.64
2023-05-18T00:17:01.317Z,97.64
2023-05-18T00:18:01.387Z,97.53
2023-05-18T00:19:01.311Z,97.74
2023-05-18T00:20:01.334Z,98.05
2023-05-18T00:21:01.319Z,98.36
2023-05-18T00:22:01.273Z,98.72
2023-05-18T00:23:01.267Z,99.03
2023-05-18T00:24:01.242Z,99.03
2023-05-18T00:25:01.210Z,99.03
2023-05-18T00:26:01.262Z,99.03
2023-05-18T00:27:01.245Z,98.82
2023-05-18T00:28:01.194Z,98.51
2023-05-18T00:29:01.165Z,98.30
2023-05-18T00:30:01.210Z,98.41
2023-05-18T00:31:01.157Z,98.45
2023-05-18T00:32:01.905Z,98.55
2023-05-18T00:33:01.281Z,98.61
2023-05-18T00:34:01.123Z,98.55
2023-05-18T00:35:01.104Z,98.55
2023-05-18T00:36:01.098Z,98.61
2023-05-18T00:37:01.050Z,98.66
2023-05-18T00:38:01.778Z,98.55
2023-05-18T00:39:01.049Z,98.45
2023-05-18T00:40:01.068Z,98.14
2023-05-18T00:41:01.028Z,97.93
2023-05-18T00:42:01.012Z,97.83
2023-05-18T00:43:01.965Z,97.72
2023-05-18T00:44:00.988Z,97.67
2023-05-18T00:45:00.990Z,97.77
2023-05-18T00:46:00.992Z,98.03
2023-05-18T00:47:00.924Z,98.35
2023-05-18T00:48:00.987Z,98.66
2023-05-18T00:49:00.929Z,98.76
2023-05-18T00:50:00.902Z,98.76
2023-05-18T00:51:01.012Z,98.71
2023-05-18T00:52:00.879Z,98.60
2023-05-18T00:53:00.848Z,98.81
2023-05-18T00:54:00.875Z,99.02
2023-05-18T00:55:00.817Z,99.22
2023-05-18T00:56:00.853Z,99.43
2023-05-18T00:57:00.917Z,99.64
2023-05-18T00:58:00.801Z,99.64
2023-05-18T00:59:00.763Z,99.64
2023-05-18T01:00:00.805Z,99.70
2023-05-18T01:01:00.783Z,99.64
2023-05-18T01:02:00.784Z,99.54
2023-05-18T01:03:00.845Z,99.33
2023-05-18T01:04:00.720Z,99.33
2023-05-18T01:05:00.703Z,99.54
2023-05-18T01:06:00.756Z,99.74
2023-05-18T01:07:00.653Z,99.95
2023-05-18T01:08:00.690Z,99.99
2023-05-18T01:09:00.781Z,99.99
2023-05-18T01:10:00.644Z,99.99
2023-05-18T01:11:00.654Z,99.99
2023-05-18T01:12:00.619Z,99.99
2023-05-18T01:13:00.577Z,99.99
2023-05-18T01:14:00.614Z,99.99
2023-05-18T01:15:00.829Z,99.99
2023-05-18T01:16:00.564Z,99.99
2023-05-18T01:17:00.579Z,99.99
2023-05-18T01:18:00.673Z,99.99
2023-05-18T01:19:00.506Z,99.99
2023-05-18T01:20:00.530Z,99.99
2023-05-18T01:21:00.536Z,99.99
2023-05-18T01:22:00.482Z,99.99
2023-05-18T01:23:00.467Z,99.99
2023-05-18T01:24:00.466Z,99.99
2023-05-18T01:25:00.424Z,99.90
2023-05-18T01:26:00.450Z,99.73
2023-05-18T01:27:00.458Z,99.63
2023-05-18T01:28:00.430Z,99.42
2023-05-18T01:29:00.391Z,99.42
2023-05-18T01:30:00.379Z,99.32
2023-05-18T01:31:00.407Z,99.21
2023-05-18T01:32:00.370Z,99.32
2023-05-18T01:33:00.418Z,99.52
2023-05-18T01:34:00.336Z,99.58
2023-05-18T01:35:00.320Z,99.68
2023-05-18T01:36:00.301Z,99.79
2023-05-18T01:37:00.260Z,99.99
2023-05-18T01:38:00.299Z,99.99
2023-05-18T01:39:00.263Z,99.99
2023-05-18T01:40:00.283Z,99.99
2023-05-18T01:41:00.232Z,99.90
2023-05-18T01:42:00.219Z,99.84
2023-05-18T01:43:01.178Z,99.94
2023-05-18T01:44:00.198Z,99.90
2023-05-18T01:45:00.182Z,99.94
2023-05-18T01:46:00.203Z,99.99
2023-05-18T01:47:00.141Z,99.99
2023-05-18T01:48:00.288Z,99.99
2023-05-18T01:49:00.145Z,99.99
2023-05-18T01:50:00.182Z,99.99
2023-05-18T01:51:00.326Z,99.99
2023-05-18T01:52:00.084Z,99.99
2023-05-18T01:53:00.047Z,99.99
2023-05-18T01:54:00.093Z,99.99
2023-05-18T01:55:00.022Z,99.99
2023-05-18T01:56:00.058Z,99.99
2023-05-18T01:57:01.302Z,99.99
2023-05-18T01:57:59.997Z,99.99
2023-05-18T01:58:59.993Z,99.99
2023-05-18T01:59:59.992Z,99.99
2023-05-18T02:00:59.940Z,99.99
2023-05-18T02:02:00.358Z,99.99
2023-05-18T02:03:00.003Z,99.99
2023-05-18T02:04:00.040Z,99.99
2023-05-18T02:04:59.898Z,99.99
2023-05-18T02:05:59.930Z,99.99
2023-05-18T02:06:59.873Z,99.99
2023-05-18T02:07:59.901Z,99.99
2023-05-18T02:08:59.983Z,99.99
2023-05-18T02:09:59.842Z,99.99
2023-05-18T02:10:59.832Z,99.99
2023-05-18T02:11:59.819Z,99.99
2023-05-18T02:12:59.779Z,99.99
2023-05-18T02:13:59.815Z,99.99
2023-05-18T02:14:59.779Z,99.99
2023-05-18T02:15:59.833Z,99.99
2023-05-18T02:16:59.763Z,99.99
2023-05-18T02:17:59.747Z,99.99
2023-05-18T02:18:59.710Z,99.99
2023-05-18T02:19:59.737Z,99.99
2023-05-18T02:20:59.729Z,99.99
2023-05-18T02:21:59.683Z,99.99
2023-05-18T02:22:59.669Z,99.99
2023-05-18T02:23:59.660Z,99.99
2023-05-18T02:24:59.617Z,99.99
2023-05-18T02:25:59.654Z,99.99
2023-05-18T02:26:59.614Z,99.99
2023-05-18T02:27:59.627Z,99.99
2023-05-18T02:28:59.591Z,99.99
2023-05-18T02:29:59.573Z,99.99
2023-05-18T02:30:59.569Z,99.99
2023-05-18T02:31:59.570Z,99.99
2023-05-18T02:32:59.565Z,99.99
2023-05-18T02:33:59.556Z,99.99
2023-05-18T02:34:59.503Z,99.99
2023-05-18T02:35:59.503Z,99.99
2023-05-18T02:36:59.455Z,99.99
2023-05-18T02:37:59.498Z,99.99
2023-05-18T02:38:59.487Z,99.99
2023-05-18T02:39:59.480Z,99.99
2023-05-18T02:40:59.430Z,99.99
2023-05-18T02:42:00.124Z,99.99
2023-05-18T02:42:59.406Z,99.99
2023-05-18T02:43:59.405Z,99.99
2023-05-18T02:44:59.386Z,99.99
2023-05-18T02:45:59.429Z,99.99
2023-05-18T02:46:59.331Z,99.99
2023-05-18T02:47:59.406Z,99.99
2023-05-18T02:48:59.333Z,99.99
2023-05-18T02:49:59.305Z,99.99
2023-05-18T02:50:59.337Z,99.99
2023-05-18T02:51:59.291Z,99.99
2023-05-18T02:52:59.336Z,99.99
2023-05-18T02:53:59.240Z,99.99
2023-05-18T02:54:59.285Z,99.99
2023-05-18T02:55:59.239Z,99.99
2023-05-18T02:56:59.252Z,99.99
2023-05-18T02:57:59.211Z,99.99
2023-05-18T02:58:59.192Z,99.99
2023-05-18T02:59:59.188Z,99.99
2023-05-18T03:00:59.204Z,99.99
2023-05-18T03:01:59.152Z,99.99
2023-05-18T03:02:59.319Z,99.99
2023-05-18T03:03:59.102Z,99.99
2023-05-18T03:04:59.117Z,99.99
2023-05-18T03:05:59.096Z,99.99
2023-05-18T03:06:59.124Z,99.99
2023-05-18T03:07:59.050Z,99.99
2023-05-18T03:08:59.172Z,99.99
2023-05-18T03:09:59.064Z,99.99
2023-05-18T03:10:59.052Z,99.99
2023-05-18T03:11:59.019Z,99.99
2023-05-18T03:12:59.039Z,99.99
2023-05-18T03:13:58.977Z,99.99
2023-05-18T03:14:59.039Z,99.99
2023-05-18T03:15:58.945Z,99.99
2023-05-18T03:16:59.949Z,99.99
2023-05-18T03:17:58.974Z,99.99
2023-05-18T03:18:59.411Z,99.99
2023-05-18T03:19:58.923Z,99.99
2023-05-18T03:20:59.031Z,99.99
2023-05-18T03:21:58.875Z,99.99
2023-05-18T03:22:58.879Z,99.99
2023-05-18T03:23:58.865Z,99.99
2023-05-18T03:24:58.871Z,99.99
2023-05-18T03:25:58.833Z,99.99
2023-05-18T03:26:58.885Z,99.99
2023-05-18T03:27:58.782Z,99.99
2023-05-18T03:28:58.797Z,99.99
2023-05-18T03:29:58.784Z,99.99
2023-05-18T03:30:58.805Z,99.99
2023-05-18T03:31:58.781Z,99.99
2023-05-18T03:32:58.846Z,99.99
2023-05-18T03:33:58.703Z,99.99
2023-05-18T03:34:58.744Z,99.99
2023-05-18T03:35:58.689Z,99.99
2023-05-18T03:36:58.693Z,99.99
2023-05-18T03:37:58.682Z,99.99
2023-05-18T03:38:58.736Z,99.99
2023-05-18T03:39:58.623Z,99.99
2023-05-18T03:40:58.642Z,99.99
2023-05-18T03:41:58.625Z,99.99
2023-05-18T03:42:58.598Z,99.99
2023-05-18T03:43:58.600Z,99.99
2023-05-18T03:44:58.727Z,99.99
2023-05-18T03:45:58.567Z,99.99
2023-05-18T03:46:58.580Z,99.99
2023-05-18T03:47:58.565Z,99.99
2023-05-18T03:48:58.537Z,99.99
2023-05-18T03:49:58.517Z,99.99
2023-05-18T03:50:58.533Z,99.99
2023-05-18T03:51:58.489Z,99.99
2023-05-18T03:52:58.506Z,99.99
2023-05-18T03:53:58.448Z,99.99
2023-05-18T03:54:58.483Z,99.99
2023-05-18T03:55:58.403Z,99.99
2023-05-18T03:56:58.456Z,99.99
2023-05-18T03:57:58.410Z,99.99
2023-05-18T03:58:58.399Z,99.99
2023-05-18T03:59:58.385Z,99.99
2023-05-18T04:00:58.389Z,99.99
2023-05-18T04:01:58.386Z,99.99
2023-05-18T04:02:58.450Z,99.99
2023-05-18T04:03:58.346Z,99.99
2023-05-18T04:04:58.317Z,99.99
2023-05-18T04:05:58.314Z,99.99
2023-05-18T04:06:58.290Z,99.99
2023-05-18T04:07:58.271Z,99.99
2023-05-18T04:08:58.311Z,99.99
2023-05-18T04:09:58.219Z,99.99
2023-05-18T04:10:58.226Z,99.99
2023-05-18T04:11:58.242Z,99.99
2023-05-18T04:12:58.239Z,99.99
2023-05-18T04:13:58.161Z,99.99
2023-05-18T04:14:58.245Z,99.99
2023-05-18T04:15:58.173Z,99.99
2023-05-18T04:16:58.165Z,99.99
2023-05-18T04:17:58.145Z,99.99
2023-05-18T04:18:58.158Z,99.99
2023-05-18T04:19:58.118Z,99.99
2023-05-18T04:20:58.248Z,99.99
2023-05-18T04:21:58.057Z,99.99
2023-05-18T04:22:58.094Z,99.99
2023-05-18T04:23:58.034Z,99.99
2023-05-18T04:24:58.044Z,99.99
2023-05-18T04:25:58.037Z,99.99
2023-05-18T04:26:58.079Z,99.99
2023-05-18T04:27:57.984Z,99.99
2023-05-18T04:28:58.002Z,99.99
2023-05-18T04:29:57.989Z,99.99
2023-05-18T04:30:57.965Z,99.99
2023-05-18T04:31:57.992Z,99.99
2023-05-18T04:32:58.109Z,99.99
2023-05-18T04:33:57.904Z,99.99
2023-05-18T04:34:57.934Z,99.99
2023-05-18T04:35:57.878Z,99.99
2023-05-18T04:36:57.890Z,99.99
2023-05-18T04:37:57.877Z,99.99
2023-05-18T04:38:57.903Z,99.99
2023-05-18T04:39:57.848Z,99.99
2023-05-18T04:40:57.863Z,99.99
2023-05-18T04:41:57.798Z,99.99
2023-05-18T04:42:57.816Z,99.99
2023-05-18T04:43:57.799Z,99.99
2023-05-18T04:44:57.833Z,99.99
2023-05-18T04:45:57.776Z,99.99
2023-05-18T04:46:57.784Z,99.99
2023-05-18T04:47:57.729Z,99.99
2023-05-18T04:48:57.733Z,99.99
2023-05-18T04:49:58.686Z,99.99
2023-05-18T04:50:57.735Z,99.99
2023-05-18T04:51:57.695Z,99.99
2023-05-18T04:52:57.722Z,99.99
2023-05-18T04:53:57.639Z,99.99
2023-05-18T04:54:57.684Z,99.99
2023-05-18T04:55:57.610Z,99.99
2023-05-18T04:56:57.662Z,99.99
2023-05-18T04:57:57.674Z,99.99
2023-05-18T04:58:57.593Z,99.99
2023-05-18T04:59:57.596Z,99.99
2023-05-18T05:00:57.657Z,99.99
2023-05-18T05:01:57.531Z,99.99
2023-05-18T05:02:57.762Z,99.99
2023-05-18T05:03:59.614Z,99.99
2023-05-18T05:04:57.529Z,99.99
2023-05-18T05:05:57.498Z,99.99
2023-05-18T05:06:57.496Z,99.99
2023-05-18T05:07:57.504Z,99.99
2023-05-18T05:08:57.580Z,99.99
2023-05-18T05:09:57.435Z,99.99
2023-05-18T05:10:57.460Z,99.99
2023-05-18T05:11:57.420Z,99.99
2023-05-18T05:12:57.411Z,99.99
2023-05-18T05:13:57.403Z,99.99
2023-05-18T05:14:57.539Z,99.99
2023-05-18T05:15:57.390Z,99.99
2023-05-18T05:16:57.358Z,99.99
2023-05-18T05:17:57.368Z,99.99
2023-05-18T05:18:57.513Z,99.99
2023-05-18T05:19:57.318Z,99.99
2023-05-18T05:20:57.370Z,99.99
2023-05-18T05:21:57.277Z,99.99
2023-05-18T05:22:57.333Z,99.99
2023-05-18T05:23:57.237Z,99.99
2023-05-18T05:24:57.250Z,99.99
2023-05-18T05:25:57.238Z,99.99
2023-05-18T05:26:57.270Z,99.99
2023-05-18T05:27:57.213Z,99.99
2023-05-18T05:28:57.222Z,99.99
2023-05-18T05:29:57.157Z,99.99
2023-05-18T05:30:57.177Z,99.99
2023-05-18T05:31:57.211Z,99.99
2023-05-18T05:32:57.193Z,99.99
2023-05-18T05:33:57.130Z,99.99
2023-05-18T05:34:57.142Z,99.99
2023-05-18T05:35:57.073Z,98.01
2023-05-18T05:36:57.088Z,97.19
2023-05-18T05:37:57.077Z,96.83
2023-05-18T05:38:57.311Z,96.01
2023-05-18T05:39:57.047Z,95.18
2023-05-18T05:40:57.060Z,95.45
2023-05-18T05:41:57.000Z,95.65
2023-05-18T05:42:57.037Z,95.55
2023-05-18T05:43:56.984Z,94.89
2023-05-18T05:44:57.100Z,94.57
2023-05-18T05:45:56.972Z,94.68
2023-05-18T05:46:57.046Z,94.43
2023-05-18T05:47:57.001Z,94.12
2023-05-18T05:48:56.932Z,94.12
2023-05-18T05:49:56.919Z,93.81
2023-05-18T05:50:56.931Z,93.98
2023-05-18T05:51:56.902Z,94.18
2023-05-18T05:52:56.903Z,92.94
2023-05-18T05:53:57.550Z,91.97
2023-05-18T05:54:56.879Z,91.87
2023-05-18T05:55:56.803Z,91.36
2023-05-18T05:56:56.933Z,91.46
2023-05-18T05:57:56.817Z,91.21
2023-05-18T05:58:56.797Z,90.39
2023-05-18T05:59:56.786Z,89.36
2023-05-18T06:00:56.793Z,89.52
2023-05-18T06:01:56.791Z,89.83
2023-05-18T06:02:56.848Z,90.41
2023-05-18T06:03:56.733Z,90.30
2023-05-18T06:04:56.715Z,89.17
2023-05-18T06:05:56.710Z,89.44
2023-05-18T06:06:56.690Z,89.23
2023-05-18T06:07:56.679Z,86.05
2023-05-18T06:08:56.735Z,84.61
2023-05-18T06:09:56.636Z,84.67
2023-05-18T06:10:56.656Z,86.83
2023-05-18T06:11:56.604Z,87.10
2023-05-18T06:12:56.610Z,84.32
2023-05-18T06:13:56.599Z,81.65
2023-05-18T06:14:56.610Z,82.54
2023-05-18T06:15:56.580Z,83.98
2023-05-18T06:16:56.642Z,81.71
2023-05-18T06:17:56.584Z,83.32
2023-05-18T06:18:56.558Z,80.04
2023-05-18T06:19:56.513Z,79.52
2023-05-18T06:20:56.558Z,79.80
2023-05-18T06:22:00.281Z,80.00
2023-05-18T06:22:56.502Z,79.08
2023-05-18T06:23:56.437Z,76.82
2023-05-18T06:24:56.444Z,77.50
2023-05-18T06:25:56.433Z,76.17
2023-05-18T06:26:56.446Z,76.48
2023-05-18T06:27:56.405Z,75.35
2023-05-18T06:28:56.423Z,75.15
2023-05-18T06:29:56.362Z,76.17
2023-05-18T06:30:56.390Z,76.65
2023-05-18T06:31:57.099Z,77.33
2023-05-18T06:32:56.430Z,76.10
2023-05-18T06:33:56.327Z,74.97
2023-05-18T06:34:56.333Z,74.97
2023-05-18T06:35:56.273Z,74.22
2023-05-18T06:36:56.284Z,74.15
2023-05-18T06:37:56.276Z,74.11
2023-05-18T06:38:56.289Z,76.57
2023-05-18T06:39:56.247Z,74.63
2023-05-18T06:40:56.260Z,73.78
2023-05-18T06:41:56.197Z,73.57
2023-05-18T06:42:56.236Z,72.69
2023-05-18T06:43:56.165Z,72.69
2023-05-18T06:44:56.209Z,73.91
2023-05-18T06:45:56.198Z,72.17
2023-05-18T06:46:56.150Z,73.27
2023-05-18T06:47:56.164Z,72.24
2023-05-18T06:48:56.150Z,72.82
2023-05-18T06:49:56.089Z,73.13
2023-05-18T06:50:56.158Z,71.59
2023-05-18T06:51:56.108Z,72.79
2023-05-18T06:52:56.114Z,72.96
2023-05-18T06:53:56.045Z,69.89
2023-05-18T06:54:56.084Z,71.01
2023-05-18T06:55:56.005Z,69.24
2023-05-18T06:56:56.082Z,69.35
2023-05-18T06:57:56.005Z,69.86
2023-05-18T06:58:56.206Z,70.75
2023-05-18T06:59:59.997Z,71.33
2023-05-18T07:00:55.987Z,65.81
2023-05-18T07:01:56.018Z,64.76
2023-05-18T07:02:56.076Z,66.60
2023-05-18T07:03:55.978Z,62.93
2023-05-18T07:04:55.905Z,61.63
2023-05-18T07:05:55.892Z,63.67
2023-05-18T07:06:55.907Z,64.62
2023-05-18T07:07:55.920Z,63.49
2023-05-18T07:08:55.909Z,62.99
2023-05-18T07:09:55.875Z,61.69
2023-05-18T07:10:55.803Z,61.69
2023-05-18T07:11:55.841Z,62.78
2023-05-18T07:12:55.808Z,62.88
2023-05-18T07:13:55.791Z,62.85
2023-05-18T07:14:55.890Z,62.65
2023-05-18T07:15:55.781Z,62.11
2023-05-18T07:16:55.720Z,61.71
2023-05-18T07:17:55.844Z,60.07
2023-05-18T07:18:55.729Z,60.78
2023-05-18T07:19:55.729Z,62.93
2023-05-18T07:20:55.739Z,62.11
2023-05-18T07:21:55.677Z,59.46
2023-05-18T07:22:55.640Z,58.64
2023-05-18T07:23:55.677Z,58.34
2023-05-18T07:24:55.639Z,59.39
2023-05-18T07:25:55.621Z,60.51
2023-05-18T07:26:55.634Z,59.59
2023-05-18T07:27:55.600Z,59.69
2023-05-18T07:28:55.557Z,62.82
2023-05-18T07:29:55.597Z,61.50
2023-05-18T07:30:55.561Z,58.78
2023-05-18T07:31:55.626Z,59.28
2023-05-18T07:32:55.610Z,59.18
2023-05-18T07:33:55.525Z,58.85
2023-05-18T07:34:55.504Z,60.21
2023-05-18T07:35:55.486Z,60.41
2023-05-18T07:36:55.453Z,60.89
2023-05-18T07:37:55.489Z,61.57
2023-05-18T07:38:55.482Z,60.63
2023-05-18T07:39:55.435Z,60.12
2023-05-18T07:40:55.398Z,57.17
2023-05-18T07:41:55.444Z,56.02
2023-05-18T07:42:55.364Z,56.96
2023-05-18T07:43:55.409Z,57.67
2023-05-18T07:44:55.408Z,57.19
2023-05-18T07:45:55.361Z,57.50
2023-05-18T07:46:55.364Z,58.26
2023-05-18T07:47:55.469Z,59.28
2023-05-18T07:48:55.296Z,59.11
2023-05-18T07:49:55.330Z,60.53
2023-05-18T07:50:55.395Z,61.05
2023-05-18T07:51:55.312Z,58.50
2023-05-18T07:52:55.265Z,57.91
2023-05-18T07:53:55.254Z,59.67
2023-05-18T07:54:55.220Z,60.62
2023-05-18T07:55:55.246Z,60.80
2023-05-18T07:56:55.244Z,60.57
2023-05-18T07:57:55.195Z,61.63
2023-05-18T07:58:55.213Z,60.73
2023-05-18T07:59:55.173Z,58.44
2023-05-18T08:00:55.129Z,56.14
2023-05-18T08:01:55.243Z,54.49
2023-05-18T08:02:55.270Z,53.65
2023-05-18T08:03:55.243Z,54.57
2023-05-18T08:04:55.109Z,53.63
2023-05-18T08:05:55.100Z,53.75
2023-05-18T08:06:55.094Z,56.12
2023-05-18T08:07:55.067Z,53.98
2023-05-18T08:08:56.021Z,56.01
2023-05-18T08:09:55.065Z,57.51
2023-05-18T08:10:54.999Z,57.61
2023-05-18T08:11:55.047Z,56.52
2023-05-18T08:14:11.898Z,57.08
2023-05-18T08:15:06.017Z,56.77
2023-05-18T08:16:11.911Z,56.90
2023-05-18T08:17:07.062Z,56.96
2023-05-18T08:18:06.025Z,58.28
2023-05-18T08:19:06.289Z,59.33
2023-05-18T08:20:05.929Z,57.09
2023-05-18T08:21:05.954Z,56.73
2023-05-18T08:22:05.869Z,57.26
2023-05-18T08:23:05.922Z,55.58
2023-05-18T08:24:05.891Z,53.17
2023-05-18T08:25:05.866Z,51.95
2023-05-18T08:26:05.915Z,52.84
2023-05-18T08:27:05.859Z,51.39
2023-05-18T08:28:05.801Z,51.50
2023-05-18T08:29:05.823Z,53.47
2023-05-18T08:30:05.831Z,53.04
2023-05-18T08:31:05.750Z,51.21
2023-05-18T08:32:05.831Z,52.18
2023-05-18T08:33:05.784Z,52.86
2023-05-18T08:34:05.733Z,53.78
2023-05-18T08:35:05.729Z,55.30
2023-05-18T08:36:05.740Z,54.66
2023-05-18T08:37:05.670Z,55.60
2023-05-18T08:38:05.947Z,54.51
2023-05-18T08:39:05.646Z,55.91
2023-05-18T08:40:05.650Z,56.80
2023-05-18T08:41:05.639Z,58.33
2023-05-18T08:42:05.629Z,54.26
2023-05-18T08:43:05.609Z,54.57
2023-05-18T08:44:05.663Z,54.57
2023-05-18T08:45:05.560Z,53.65
2023-05-18T08:46:05.582Z,52.30
2023-05-18T08:47:05.554Z,53.83
2023-05-18T08:48:05.671Z,54.08
2023-05-18T08:49:05.658Z,56.68
2023-05-18T08:50:05.576Z,56.24
2023-05-18T08:51:05.482Z,57.80
2023-05-18T08:52:05.520Z,60.69
2023-05-18T08:53:06.173Z,59.33
2023-05-18T08:54:05.459Z,57.50
2023-05-18T08:55:05.444Z,58.64
2023-05-18T08:56:05.493Z,60.25
2023-05-18T08:57:05.403Z,58.56
2023-05-18T08:58:05.437Z,58.36
2023-05-18T08:59:05.373Z,57.82
2023-05-18T09:00:05.396Z,56.85
2023-05-18T09:01:05.393Z,58.40
2023-05-18T09:02:05.553Z,53.96
2023-05-18T09:03:05.370Z,53.58
2023-05-18T09:04:05.320Z,50.06
2023-05-18T09:05:05.372Z,49.43
2023-05-18T09:06:05.312Z,47.49
2023-05-18T09:07:05.302Z,49.38
2023-05-18T09:08:05.338Z,48.95
2023-05-18T09:09:05.376Z,49.58
2023-05-18T09:10:05.264Z,52.11
2023-05-18T09:11:05.208Z,50.32
2023-05-18T09:12:05.212Z,47.44
2023-05-18T09:13:05.209Z,46.03
2023-05-18T09:14:05.296Z,45.98
2023-05-18T09:15:05.180Z,46.77
2023-05-18T09:16:05.213Z,46.17
2023-05-18T09:17:05.124Z,45.46
2023-05-18T09:18:05.162Z,45.74
2023-05-18T09:19:05.172Z,44.79
2023-05-18T09:20:05.174Z,43.96
2023-05-18T09:21:05.073Z,41.73
2023-05-18T09:22:05.131Z,43.43
2023-05-18T09:23:05.064Z,49.04
2023-05-18T09:24:05.052Z,52.20
2023-05-18T09:25:05.045Z,51.42
2023-05-18T09:26:05.060Z,47.83
2023-05-18T09:27:05.018Z,48.98
2023-05-18T09:28:05.073Z,48.02
2023-05-18T09:29:04.960Z,45.26
2023-05-18T09:30:05.009Z,44.13
2023-05-18T09:31:04.937Z,44.43
2023-05-18T09:32:05.157Z,44.49
2023-05-18T09:33:05.004Z,46.73
2023-05-18T09:34:04.974Z,49.41
2023-05-18T09:35:04.934Z,46.45
2023-05-18T09:36:04.933Z,46.12
2023-05-18T09:37:04.862Z,46.26
2023-05-18T09:38:04.927Z,44.51
2023-05-18T09:39:04.843Z,42.86
2023-05-18T09:40:04.856Z,41.63
2023-05-18T09:41:04.828Z,43.54
2023-05-18T09:42:04.831Z,41.07
2023-05-18T09:43:04.796Z,42.92
2023-05-18T09:44:04.934Z,44.02
2023-05-18T09:45:04.749Z,45.44
2023-05-18T09:46:04.792Z,45.44
2023-05-18T09:47:04.868Z,43.93
2023-05-18T09:48:04.786Z,46.02
2023-05-18T09:49:05.688Z,44.77
2023-05-18T09:50:04.767Z,43.06
2023-05-18T09:51:04.681Z,44.39
2023-05-18T09:52:04.692Z,48.39
2023-05-18T09:53:04.664Z,52.13
2023-05-18T09:54:04.659Z,50.94
2023-05-18T09:55:04.658Z,50.84
2023-05-18T09:56:04.674Z,47.19
2023-05-18T09:57:10.876Z,47.42
2023-05-18T09:58:05.630Z,47.25
2023-05-18T09:59:04.561Z,44.59
2023-05-18T10:00:04.571Z,42.68
2023-05-18T10:01:04.581Z,43.32
2023-05-18T10:02:04.573Z,48.26
2023-05-18T10:03:04.602Z,45.09
2023-05-18T10:04:04.578Z,42.13
2023-05-18T10:05:04.483Z,42.24
2023-05-18T10:06:04.496Z,41.19
2023-05-18T10:07:04.477Z,41.41
2023-05-18T10:08:04.578Z,42.98
2023-05-18T10:09:04.421Z,43.91
2023-05-18T10:10:05.856Z,46.50
2023-05-18T10:11:04.408Z,43.96
2023-05-18T10:12:04.422Z,43.54
2023-05-18T10:13:04.427Z,45.06
2023-05-18T10:14:05.383Z,44.79
2023-05-18T10:15:04.380Z,46.53
2023-05-18T10:16:04.389Z,49.41
2023-05-18T10:17:15.178Z,46.42
2023-05-18T10:18:05.421Z,42.74
2023-05-18T10:19:04.309Z,41.89
2023-05-18T10:20:04.349Z,39.95
2023-05-18T10:21:04.295Z,43.52
2023-05-18T10:22:04.306Z,43.20
2023-05-18T10:23:04.242Z,46.09
2023-05-18T10:24:04.257Z,46.65
2023-05-18T10:25:04.266Z,44.37
2023-05-18T10:26:04.358Z,43.12
2023-05-18T10:27:04.296Z,44.02
2023-05-18T10:28:04.242Z,43.58
2023-05-18T10:29:04.171Z,42.18
2023-05-18T10:30:04.239Z,44.24
2023-05-18T10:31:04.154Z,41.96
2023-05-18T10:32:07.538Z,42.02
2023-05-18T10:33:11.305Z,39.32
2023-05-18T10:34:05.128Z,42.01
2023-05-18T10:35:04.117Z,43.32
2023-05-18T10:36:04.133Z,43.87
2023-05-18T10:37:04.069Z,44.45
2023-05-18T10:38:04.130Z,42.47
2023-05-18T10:39:04.029Z,40.65
2023-05-18T10:40:04.126Z,40.63
2023-05-18T10:41:04.039Z,40.79
2023-05-18T10:42:04.022Z,40.77
2023-05-18T10:43:04.003Z,40.17
2023-05-18T10:44:04.232Z,41.55
2023-05-18T10:45:03.980Z,42.35
2023-05-18T10:46:04.070Z,41.33
2023-05-18T10:47:04.031Z,41.01
2023-05-18T10:48:03.964Z,39.29
2023-05-18T10:49:03.947Z,40.37
2023-05-18T10:50:03.947Z,38.97
2023-05-18T10:51:03.920Z,39.31
2023-05-18T10:52:03.958Z,39.83
2023-05-18T10:53:03.859Z,40.83
2023-05-18T10:54:03.879Z,40.33
2023-05-18T10:55:03.852Z,43.42
2023-05-18T10:56:03.934Z,41.25
2023-05-18T10:57:03.810Z,41.91
2023-05-18T10:58:03.848Z,40.97
2023-05-18T10:59:03.766Z,38.75
2023-05-18T11:00:03.801Z,40.07
2023-05-18T11:01:03.782Z,39.57
2023-05-18T11:02:03.918Z,39.27
2023-05-18T11:03:03.798Z,39.14
2023-05-18T11:04:03.764Z,41.07
2023-05-18T11:05:03.732Z,42.05
2023-05-18T11:06:03.736Z,40.71
2023-05-18T11:07:03.670Z,39.87
2023-05-18T11:08:03.716Z,40.85
2023-05-18T11:09:04.618Z,40.83
2023-05-18T11:10:03.684Z,40.03
2023-05-18T11:11:03.618Z,38.73
2023-05-18T11:12:03.621Z,39.03
2023-05-18T11:13:03.614Z,40.89
2023-05-18T11:14:03.901Z,38.83
2023-05-18T11:15:03.598Z,40.01
2023-05-18T11:16:03.651Z,37.41
2023-05-18T11:17:03.520Z,38.87
2023-05-18T11:18:03.595Z,40.45
2023-05-18T11:19:03.584Z,39.87
2023-05-18T11:20:03.632Z,40.45
2023-05-18T11:21:03.502Z,39.29
2023-05-18T11:22:03.491Z,41.79
2023-05-18T11:23:03.494Z,41.38
2023-05-18T11:24:03.490Z,40.01
2023-05-18T11:25:04.402Z,42.19
2023-05-18T11:26:03.542Z,43.74
2023-05-18T11:27:03.444Z,44.12
2023-05-18T11:28:03.450Z,41.85
2023-05-18T11:29:03.363Z,40.03
2023-05-18T11:30:15.264Z,41.27
2023-05-18T11:31:04.410Z,42.25
2023-05-18T11:32:04.837Z,42.30
2023-05-18T11:33:03.474Z,40.55
2023-05-18T11:34:03.316Z,38.35
2023-05-18T11:35:03.309Z,39.03
2023-05-18T11:36:03.333Z,39.73
2023-05-18T11:37:03.285Z,37.81
2023-05-18T11:38:03.293Z,37.92
2023-05-18T11:39:03.223Z,38.59
2023-05-18T11:40:07.735Z,39.78
2023-05-18T11:41:04.230Z,38.04
2023-05-18T11:42:03.234Z,37.84
2023-05-18T11:43:03.251Z,37.02
2023-05-18T11:44:03.212Z,37.10
2023-05-18T11:45:03.148Z,36.21
2023-05-18T11:46:03.193Z,36.99
2023-05-18T11:47:03.117Z,36.54
2023-05-18T11:48:03.918Z,37.46
2023-05-18T11:49:03.200Z,37.18
2023-05-18T11:50:03.110Z,37.70
2023-05-18T11:51:03.091Z,36.99
2023-05-18T11:52:03.114Z,37.18
2023-05-18T11:53:03.042Z,36.18
2023-05-18T11:54:03.080Z,38.31
2023-05-18T11:55:03.049Z,37.31
2023-05-18T11:56:03.018Z,37.79
2023-05-18T11:57:03.023Z,37.36
2023-05-18T11:58:03.046Z,35.24
2023-05-18T11:59:02.977Z,37.70
2023-05-18T12:00:02.987Z,38.33
2023-05-18T12:01:02.992Z,39.11
2023-05-18T12:02:02.996Z,39.50
2023-05-18T12:03:03.047Z,37.27
2023-05-18T12:04:03.058Z,35.58
2023-05-18T12:05:06.780Z,38.38
2023-05-18T12:06:02.922Z,39.46
2023-05-18T12:07:02.888Z,37.86
2023-05-18T12:08:02.880Z,35.35
2023-05-18T12:09:03.750Z,34.76
2023-05-18T12:10:03.157Z,37.31
2023-05-18T12:11:02.822Z,38.43
2023-05-18T12:12:02.833Z,37.65
2023-05-18T12:13:02.801Z,39.37
2023-05-18T12:14:02.786Z,39.65
2023-05-18T12:17:50.411Z,40.03
2023-05-18T12:17:55.139Z,36.19
2023-05-18T12:18:55.061Z,38.31
2023-05-18T12:19:55.059Z,41.74
2023-05-18T12:20:54.999Z,41.49
2023-05-18T12:21:56.676Z,42.11
2023-05-18T12:22:55.009Z,41.95
2023-05-18T12:23:54.986Z,42.60
2023-05-18T12:24:55.037Z,42.41
2023-05-18T12:25:55.018Z,41.65
2023-05-18T12:26:54.920Z,41.39
2023-05-18T12:27:55.002Z,41.24
2023-05-18T12:28:54.895Z,42.35
2023-05-18T12:29:54.910Z,40.93
2023-05-18T12:30:55.010Z,38.59
2023-05-18T12:31:54.911Z,38.68
2023-05-18T12:32:55.638Z,37.32
2023-05-18T12:33:56.793Z,36.72
2023-05-18T12:34:54.871Z,36.21
2023-05-18T12:35:54.853Z,35.99
2023-05-18T12:36:54.877Z,35.17
2023-05-18T12:37:54.890Z,35.28
2023-05-18T12:38:54.799Z,37.23
2023-05-18T12:39:55.125Z,34.71
2023-05-18T12:40:55.274Z,32.54
2023-05-18T12:41:54.849Z,33.75
2023-05-18T12:42:58.790Z,34.68
2023-05-18T12:43:55.468Z,35.66
2023-05-18T12:44:54.712Z,33.97
2023-05-18T12:45:54.781Z,34.28
2023-05-18T12:46:54.752Z,37.59
2023-05-18T12:47:55.032Z,35.51
2023-05-18T12:48:54.716Z,35.69
2023-05-18T12:49:54.653Z,35.89
2023-05-18T12:50:54.641Z,35.16
2023-05-18T12:51:54.621Z,35.42
2023-05-18T12:57:02.379Z,36.08
2023-05-18T13:08:19.308Z,33.65
2023-05-18T13:08:24.476Z,37.87